createdAt,value
2018-07-15T00:01:58.168Z,3.23
2018-07-15T00:04:27.253Z,2.73
2018-07-15T00:06:56.407Z,5.40
2018-07-15T00:09:25.517Z,2.70
2018-07-15T00:11:54.674Z,2.97
2018-07-15T00:14:23.852Z,4.57
2018-07-15T00:16:52.928Z,2.63
2018-07-15T00:19:22.008Z,2.40
2018-07-15T00:21:51.112Z,3.60
2018-07-15T00:24:20.124Z,3.50
2018-07-15T00:26:49.246Z,3.40
2018-07-15T00:29:18.345Z,4.23
2018-07-15T00:31:47.402Z,5.60
2018-07-15T00:34:16.496Z,7.07
2018-07-15T00:36:45.526Z,8.17
2018-07-15T00:39:14.706Z,3.93
2018-07-15T00:41:43.974Z,3.37
2018-07-15T00:44:13.804Z,4.07
2018-07-15T00:46:43.096Z,3.00
2018-07-15T00:49:12.105Z,3.77
2018-07-15T00:51:41.402Z,5.17
2018-07-15T00:54:10.406Z,3.93
2018-07-15T00:56:39.392Z,5.83
2018-07-15T00:59:08.461Z,6.23
2018-07-15T01:01:37.526Z,5.80
2018-07-15T01:04:06.834Z,5.27
2018-07-15T01:06:35.815Z,4.37
2018-07-15T01:09:07.350Z,4.80
2018-07-15T01:11:36.466Z,3.20
2018-07-15T01:14:05.564Z,5.77
2018-07-15T01:16:34.983Z,3.13
2018-07-15T01:19:04.063Z,5.63
2018-07-15T01:21:33.086Z,5.10
2018-07-15T01:24:02.174Z,5.33
2018-07-15T01:26:31.516Z,5.37
2018-07-15T01:29:00.573Z,5.67
2018-07-15T01:31:29.611Z,3.83
2018-07-15T01:33:58.642Z,3.80
2018-07-15T01:36:27.691Z,5.33
2018-07-15T01:38:56.705Z,6.10
2018-07-15T01:41:25.767Z,4.00
2018-07-15T01:43:55.817Z,4.47
2018-07-15T01:46:24.869Z,5.57
2018-07-15T01:48:54.363Z,4.77
2018-07-15T01:51:23.408Z,3.87
2018-07-15T01:53:52.963Z,4.70
2018-07-15T01:56:22.024Z,3.07
2018-07-15T01:58:51.177Z,3.67
2018-07-15T02:01:20.309Z,6.83
2018-07-15T02:03:49.343Z,3.40
2018-07-15T02:06:18.399Z,4.93
2018-07-15T02:08:47.413Z,3.20
2018-07-15T02:11:16.529Z,6.43
2018-07-15T02:13:45.598Z,4.23
2018-07-15T02:16:14.691Z,3.93
2018-07-15T02:18:43.733Z,9.07
2018-07-15T02:21:12.785Z,4.93
2018-07-15T02:23:41.822Z,4.07
2018-07-15T02:26:10.828Z,3.60
2018-07-15T02:28:40.845Z,7.60
2018-07-15T02:31:09.941Z,3.67
2018-07-15T02:33:38.944Z,3.13
2018-07-15T02:36:07.997Z,4.70
2018-07-15T02:38:36.992Z,4.50
2018-07-15T02:41:06.159Z,6.00
2018-07-15T02:43:35.207Z,5.73
2018-07-15T02:46:04.321Z,5.50
2018-07-15T02:48:34.048Z,4.90
2018-07-15T02:51:03.089Z,6.87
2018-07-15T02:53:32.191Z,4.20
2018-07-15T02:56:04.391Z,4.73
2018-07-15T02:58:33.458Z,4.17
2018-07-15T03:01:02.500Z,7.07
2018-07-15T03:03:31.539Z,4.17
2018-07-15T03:06:00.580Z,4.53
2018-07-15T03:08:29.631Z,4.77
2018-07-15T03:10:58.718Z,3.30
2018-07-15T03:13:27.865Z,6.23
2018-07-15T03:15:56.918Z,7.73
2018-07-15T03:18:26.056Z,4.10
2018-07-15T03:20:55.154Z,5.33
2018-07-15T03:23:24.217Z,6.00
2018-07-15T03:25:53.408Z,6.93
2018-07-15T03:28:22.532Z,5.13
2018-07-15T03:30:51.598Z,4.73
2018-07-15T03:33:21.098Z,8.47
2018-07-15T03:35:50.135Z,6.50
2018-07-15T03:38:19.180Z,14.37
2018-07-15T03:40:48.353Z,6.80
2018-07-15T03:43:17.540Z,7.03
2018-07-15T03:45:46.650Z,6.03
2018-07-15T03:48:15.706Z,7.37
2018-07-15T03:50:44.720Z,8.13
2018-07-15T03:53:14.375Z,5.93
2018-07-15T03:55:43.438Z,7.00
2018-07-15T03:58:12.500Z,7.70
2018-07-15T04:00:41.768Z,5.77
2018-07-15T04:03:10.767Z,5.77
2018-07-15T04:05:46.571Z,3.70
2018-07-15T04:08:15.710Z,3.17
2018-07-15T04:10:44.854Z,6.37
2018-07-15T04:13:13.966Z,4.77
2018-07-15T04:15:43.127Z,3.60
2018-07-15T04:18:12.159Z,4.93
2018-07-15T04:20:41.342Z,5.77
2018-07-15T04:23:10.554Z,3.93
2018-07-15T04:25:40.226Z,3.80
2018-07-15T04:28:09.337Z,3.90
2018-07-15T04:30:38.480Z,4.00
2018-07-15T04:33:08.166Z,4.60
2018-07-15T04:35:37.202Z,6.90
2018-07-15T04:38:06.293Z,6.43
2018-07-15T04:40:35.351Z,2.63
2018-07-15T04:43:05.170Z,3.83
2018-07-15T04:45:34.216Z,5.90
2018-07-15T04:48:03.316Z,3.13
2018-07-15T04:50:32.367Z,5.10
2018-07-15T04:53:01.438Z,5.03
2018-07-15T04:55:30.427Z,3.03
2018-07-15T04:57:59.456Z,5.40
2018-07-15T05:00:28.504Z,3.03
2018-07-15T05:02:57.611Z,2.67
2018-07-15T05:05:26.640Z,1.90
2018-07-15T05:07:55.657Z,2.57
2018-07-15T05:10:24.708Z,2.10
2018-07-15T05:12:53.821Z,3.80
2018-07-15T05:15:22.855Z,1.77
2018-07-15T05:17:51.868Z,1.70
2018-07-15T05:20:20.975Z,2.93
2018-07-15T05:22:50.099Z,2.17
2018-07-15T05:25:19.228Z,2.63
2018-07-15T05:27:48.309Z,1.60
2018-07-15T05:30:17.291Z,2.43
2018-07-15T05:32:46.331Z,4.70
2018-07-15T05:35:15.435Z,2.33
2018-07-15T05:37:44.501Z,1.83
2018-07-15T05:40:13.557Z,3.23
2018-07-15T05:42:42.541Z,1.70
2018-07-15T05:45:11.535Z,2.00
2018-07-15T05:47:40.623Z,2.10
2018-07-15T05:50:10.467Z,3.27
2018-07-15T05:52:39.493Z,2.20
2018-07-15T05:55:12.529Z,2.10
2018-07-15T05:57:41.552Z,3.07
2018-07-15T06:00:10.577Z,2.70
2018-07-15T06:02:39.692Z,2.73
2018-07-15T06:05:09.123Z,3.17
2018-07-15T06:07:38.133Z,4.67
2018-07-15T06:10:07.314Z,5.60
2018-07-15T06:12:36.439Z,3.27
2018-07-15T06:15:05.554Z,3.03
2018-07-15T06:17:34.754Z,1.70
2018-07-15T06:20:04.054Z,3.80
2018-07-15T06:22:33.463Z,2.30
2018-07-15T06:25:02.546Z,4.07
2018-07-15T06:27:31.738Z,2.10
2018-07-15T06:30:01.232Z,4.00
2018-07-15T06:32:30.382Z,2.50
2018-07-15T06:34:59.611Z,1.70
2018-07-15T06:37:28.784Z,2.10
2018-07-15T06:39:58.215Z,3.10
2018-07-15T06:42:27.273Z,3.10
2018-07-15T06:44:56.324Z,2.53
2018-07-15T06:47:25.625Z,2.50
2018-07-15T06:49:54.637Z,2.10
2018-07-15T06:52:24.473Z,2.37
2018-07-15T06:54:53.527Z,2.77
2018-07-15T06:57:22.584Z,3.80
2018-07-15T06:59:51.785Z,4.37
2018-07-15T07:02:21.099Z,4.13
2018-07-15T07:04:50.402Z,2.00
2018-07-15T07:07:19.658Z,3.00
2018-07-15T07:09:48.732Z,3.63
2018-07-15T07:12:17.772Z,2.63
2018-07-15T07:14:46.818Z,1.50
2018-07-15T07:17:15.919Z,1.67
2018-07-15T07:19:45.090Z,5.57
2018-07-15T07:22:14.194Z,2.37
2018-07-15T07:24:43.253Z,1.73
2018-07-15T07:27:12.563Z,2.20
2018-07-15T07:29:41.635Z,1.77
2018-07-15T07:32:10.699Z,2.13
2018-07-15T07:34:39.766Z,2.33
2018-07-15T07:37:08.849Z,1.73
2018-07-15T07:39:37.966Z,2.57
2018-07-15T07:42:07.024Z,3.00
2018-07-15T07:44:36.041Z,1.67
2018-07-15T07:47:05.478Z,2.77
2018-07-15T07:49:34.378Z,2.40
2018-07-15T07:52:03.559Z,2.97
2018-07-15T07:54:32.562Z,3.83
2018-07-15T07:57:01.591Z,2.30
2018-07-15T07:59:30.665Z,2.90
2018-07-15T08:01:59.723Z,4.23
2018-07-15T08:04:28.781Z,2.00
2018-07-15T08:06:57.904Z,1.50
2018-07-15T08:09:27.070Z,2.53
2018-07-15T08:11:56.273Z,2.30
2018-07-15T08:14:25.424Z,2.30
2018-07-15T08:16:54.787Z,5.07
2018-07-15T08:19:23.984Z,1.70
2018-07-15T08:21:53.158Z,3.53
2018-07-15T08:24:22.290Z,2.13
2018-07-15T08:26:51.313Z,1.43
2018-07-15T08:29:20.342Z,2.63
2018-07-15T08:31:49.647Z,2.53
2018-07-15T08:34:18.665Z,1.93
2018-07-15T08:36:47.666Z,1.90
2018-07-15T08:39:17.369Z,2.87
2018-07-15T08:41:46.655Z,1.83
2018-07-15T08:44:15.729Z,2.53
2018-07-15T08:46:44.797Z,2.10
2018-07-15T08:49:14.017Z,1.70
2018-07-15T08:51:43.137Z,2.03
2018-07-15T08:54:12.264Z,3.97
2018-07-15T08:56:41.452Z,2.03
2018-07-15T08:59:10.502Z,3.57
2018-07-15T09:01:40.446Z,2.27
2018-07-15T09:04:09.573Z,2.47
2018-07-15T09:06:38.688Z,2.13
2018-07-15T09:18:57.763Z,3.90
2018-07-15T09:21:26.781Z,4.40
2018-07-15T09:23:55.877Z,2.00
2018-07-15T09:26:25.041Z,3.40
2018-07-15T09:28:54.129Z,2.03
2018-07-15T09:31:23.233Z,2.70
2018-07-15T09:33:52.391Z,3.93
2018-07-15T09:36:21.741Z,2.00
2018-07-15T09:38:51.029Z,1.57
2018-07-15T09:41:20.984Z,2.40
2018-07-15T09:43:50.318Z,5.93
2018-07-15T09:46:19.548Z,3.87
2018-07-15T09:48:49.086Z,6.40
2018-07-15T09:51:18.331Z,4.20
2018-07-15T09:53:47.609Z,3.93
2018-07-15T09:56:16.737Z,3.67
2018-07-15T09:58:45.985Z,2.27
2018-07-15T10:01:15.242Z,10.27
2018-07-15T10:03:44.373Z,2.37
2018-07-15T10:06:13.396Z,2.93
2018-07-15T10:08:42.388Z,2.53
2018-07-15T10:11:11.388Z,2.10
2018-07-15T10:13:41.331Z,1.90
2018-07-15T10:16:10.446Z,1.87
2018-07-15T10:18:39.575Z,2.10
2018-07-15T10:21:08.613Z,3.40
2018-07-15T10:23:38.084Z,3.13
2018-07-15T10:26:07.152Z,7.00
2018-07-15T10:28:36.162Z,3.63
2018-07-15T10:31:05.321Z,3.90
2018-07-15T10:33:34.419Z,1.93
2018-07-15T10:36:03.546Z,3.70
2018-07-15T10:38:33.295Z,2.97
2018-07-15T10:41:02.956Z,4.83
2018-07-15T10:43:32.158Z,2.40
2018-07-15T10:46:01.312Z,1.90
2018-07-15T10:48:30.610Z,2.87
2018-07-15T10:50:59.658Z,5.03
2018-07-15T10:53:28.721Z,3.07
2018-07-15T10:55:57.775Z,3.47
2018-07-15T10:58:26.930Z,3.03
2018-07-15T11:00:55.957Z,3.50
2018-07-15T11:03:25.038Z,2.87
2018-07-15T11:05:54.124Z,4.93
2018-07-15T11:08:23.237Z,2.33
2018-07-15T11:10:52.817Z,3.70
2018-07-15T11:13:22.314Z,4.13
2018-07-15T11:15:51.436Z,4.07
2018-07-15T11:18:20.481Z,2.93
2018-07-15T11:20:49.860Z,3.00
2018-07-15T11:23:19.018Z,2.40
2018-07-15T11:25:48.044Z,2.20
2018-07-15T11:28:17.223Z,3.60
2018-07-15T11:30:46.338Z,3.10
2018-07-15T11:33:15.447Z,2.53
2018-07-15T11:35:44.524Z,2.50
2018-07-15T11:38:13.944Z,4.13
2018-07-15T11:40:43.160Z,4.60
2018-07-15T11:43:12.284Z,2.93
2018-07-15T11:45:42.072Z,3.20
2018-07-15T11:48:11.376Z,3.57
2018-07-15T11:50:40.417Z,2.30
2018-07-15T11:53:09.466Z,2.87
2018-07-15T11:55:38.767Z,4.67
2018-07-15T11:58:07.841Z,6.13
2018-07-15T12:00:37.034Z,4.20
2018-07-15T12:03:06.100Z,5.53
2018-07-15T12:05:35.230Z,5.03
2018-07-15T12:08:04.280Z,3.90
2018-07-15T12:10:33.428Z,6.73
2018-07-15T12:13:02.478Z,9.20
2018-07-15T12:15:31.531Z,6.73
2018-07-15T12:18:00.659Z,5.27
2018-07-15T12:20:29.763Z,4.00
2018-07-15T12:22:58.817Z,2.47
2018-07-15T12:25:27.801Z,5.60
2018-07-15T12:27:56.860Z,2.27
2018-07-15T12:30:25.892Z,3.10
2018-07-15T12:32:55.060Z,2.87
2018-07-15T12:35:24.131Z,2.70
2018-07-15T12:37:53.265Z,3.77
2018-07-15T12:40:22.358Z,3.90
2018-07-15T12:42:51.640Z,2.10
2018-07-15T12:45:20.796Z,5.27
2018-07-15T12:47:49.837Z,5.23
2018-07-15T12:50:18.943Z,10.70
2018-07-15T12:52:47.973Z,4.17
2018-07-15T12:55:17.155Z,2.87
2018-07-15T12:57:46.493Z,6.07
2018-07-15T13:00:15.678Z,4.70
2018-07-15T13:02:44.702Z,4.93
2018-07-15T13:05:13.740Z,5.57
2018-07-15T13:07:43.176Z,2.53
2018-07-15T13:10:12.198Z,4.00
2018-07-15T13:12:41.296Z,3.40
2018-07-15T13:15:10.460Z,5.33
2018-07-15T13:17:39.524Z,6.47
2018-07-15T13:20:09.574Z,2.57
2018-07-15T13:22:39.039Z,4.33
2018-07-15T13:25:08.325Z,6.90
2018-07-15T13:27:38.041Z,4.47
2018-07-15T13:30:07.170Z,3.17
2018-07-15T13:32:36.411Z,3.87
2018-07-15T13:35:05.803Z,2.63
2018-07-15T13:37:35.346Z,5.27
2018-07-15T13:40:04.407Z,8.30
2018-07-15T13:42:33.455Z,5.00
2018-07-15T13:45:02.483Z,6.43
2018-07-15T13:47:31.594Z,5.47
2018-07-15T13:50:00.640Z,3.83
2018-07-15T13:52:33.289Z,3.40
2018-07-15T13:55:03.041Z,4.37
2018-07-15T13:57:32.145Z,5.17
2018-07-15T14:00:01.230Z,3.83
2018-07-15T14:02:30.882Z,3.43
2018-07-15T14:05:00.002Z,2.83
2018-07-15T14:07:29.205Z,2.07
2018-07-15T14:09:58.270Z,7.83
2018-07-15T14:12:28.483Z,4.77
2018-07-15T14:14:57.638Z,7.57
2018-07-15T14:17:26.814Z,2.90
2018-07-15T14:19:55.861Z,11.80
2018-07-15T14:22:25.034Z,4.10
2018-07-15T14:24:54.104Z,5.93
2018-07-15T14:27:23.189Z,5.57
2018-07-15T14:29:52.355Z,4.60
2018-07-15T14:32:21.460Z,4.67
2018-07-15T14:34:50.600Z,2.53
2018-07-15T14:37:19.868Z,3.97
2018-07-15T14:39:48.886Z,4.83
2018-07-15T14:42:18.477Z,3.00
2018-07-15T14:44:47.470Z,2.53
2018-07-15T14:47:16.602Z,5.83
2018-07-15T14:49:45.746Z,3.37
2018-07-15T14:52:15.060Z,4.57
2018-07-15T14:54:44.246Z,4.27
2018-07-15T14:57:13.294Z,4.07
2018-07-15T14:59:42.310Z,3.63
2018-07-15T15:02:11.352Z,2.20
2018-07-15T15:04:40.447Z,5.93
2018-07-15T15:07:09.635Z,3.60
2018-07-15T15:09:38.706Z,4.50
2018-07-15T15:12:08.073Z,2.00
2018-07-15T15:14:37.127Z,5.93
2018-07-15T15:17:07.426Z,4.27
2018-07-15T15:19:36.524Z,3.83
2018-07-15T15:22:05.571Z,3.30
2018-07-15T15:24:35.019Z,3.03
2018-07-15T15:27:04.124Z,5.77
2018-07-15T15:29:33.265Z,3.30
2018-07-15T15:32:02.643Z,3.30
2018-07-15T15:34:31.921Z,3.30
2018-07-15T15:37:01.021Z,3.07
2018-07-15T15:39:30.282Z,3.43
2018-07-15T15:41:59.567Z,5.23
2018-07-15T15:44:28.628Z,2.00
2018-07-15T15:46:57.724Z,2.60
2018-07-15T15:49:26.814Z,2.37
2018-07-15T15:51:56.781Z,14.20
2018-07-15T15:54:33.249Z,3.10
2018-07-15T15:57:02.420Z,3.57
2018-07-15T15:59:31.458Z,2.10
2018-07-15T16:02:00.850Z,3.80
2018-07-15T16:04:30.047Z,3.83
2018-07-15T16:07:02.261Z,4.97
2018-07-15T16:09:31.240Z,7.60
2018-07-15T16:12:00.573Z,4.87
2018-07-15T16:14:29.744Z,4.57
2018-07-15T16:16:59.009Z,2.47
2018-07-15T16:19:31.257Z,2.35
2018-07-15T16:22:01.052Z,3.35
2018-07-15T16:24:30.168Z,2.27
2018-07-15T16:26:59.326Z,3.92
2018-07-15T16:29:28.428Z,2.75
2018-07-15T16:31:57.663Z,1.55
2018-07-15T16:34:27.013Z,3.63
2018-07-15T16:36:56.425Z,2.00
2018-07-15T16:39:25.465Z,5.03
2018-07-15T16:41:58.454Z,6.03
2018-07-15T16:44:34.384Z,2.63
2018-07-15T16:47:03.677Z,2.87
2018-07-15T16:49:32.809Z,3.57
2018-07-15T16:52:01.882Z,3.10
2018-07-15T16:54:31.247Z,4.30
2018-07-15T16:57:00.361Z,2.47
2018-07-15T16:59:29.408Z,3.43
2018-07-15T17:01:58.532Z,3.20
2018-07-15T17:04:27.641Z,1.80
2018-07-15T17:06:56.721Z,3.40
2018-07-15T17:09:25.825Z,2.50
2018-07-15T17:11:54.920Z,3.10
2018-07-15T17:14:24.018Z,4.07
2018-07-15T17:16:53.277Z,2.37
2018-07-15T17:19:22.501Z,3.30
2018-07-15T17:21:51.630Z,1.90
2018-07-15T17:24:20.938Z,2.13
2018-07-15T17:26:49.972Z,2.93
2018-07-15T17:29:19.276Z,6.57
2018-07-15T17:31:48.396Z,4.00
2018-07-15T17:34:17.572Z,2.47
2018-07-15T17:36:46.900Z,2.83
2018-07-15T17:39:16.054Z,3.00
2018-07-15T17:41:45.272Z,3.20
2018-07-15T17:44:14.854Z,4.20
2018-07-15T17:46:44.380Z,3.23
2018-07-15T17:49:13.833Z,9.43
2018-07-15T17:51:43.477Z,5.97
2018-07-15T17:54:12.672Z,2.60
2018-07-15T17:56:41.933Z,2.60
2018-07-15T17:59:12.062Z,5.40
2018-07-15T18:01:41.150Z,5.77
2018-07-15T18:04:10.472Z,3.70
2018-07-15T18:06:39.582Z,2.67
2018-07-15T18:09:08.724Z,6.10
2018-07-15T18:11:37.826Z,5.17
2018-07-15T18:14:07.096Z,2.23
2018-07-15T18:16:36.156Z,1.80
2018-07-15T18:19:05.470Z,3.47
2018-07-15T18:21:34.553Z,3.03
2018-07-15T18:24:03.753Z,4.47
2018-07-15T18:26:32.907Z,3.00
2018-07-15T18:29:03.439Z,4.77
2018-07-15T18:31:33.071Z,4.67
2018-07-15T18:34:02.324Z,4.43
2018-07-15T18:36:31.376Z,2.40
2018-07-15T18:39:00.612Z,3.73
2018-07-15T18:41:29.782Z,4.53
2018-07-15T18:43:58.948Z,5.23
2018-07-15T18:46:28.010Z,6.53
2018-07-15T18:48:57.069Z,3.20
2018-07-15T18:51:26.226Z,4.13
2018-07-15T18:53:55.308Z,2.87
2018-07-15T18:56:24.423Z,2.93
2018-07-15T18:58:53.522Z,4.07
2018-07-15T19:01:22.668Z,4.57
2018-07-15T19:03:51.919Z,4.33
2018-07-15T19:06:21.035Z,2.10
2018-07-15T19:08:50.262Z,4.07
2018-07-15T19:11:19.346Z,10.90
2018-07-15T19:13:48.507Z,3.80
2018-07-15T19:16:17.594Z,6.43
2018-07-15T19:18:46.775Z,3.20
2018-07-15T19:21:15.881Z,4.93
2018-07-15T19:23:45.912Z,3.40
2018-07-15T19:26:14.964Z,4.70
2018-07-15T19:28:44.123Z,6.93
2018-07-15T19:31:13.189Z,10.27
2018-07-15T19:33:42.739Z,5.07
2018-07-15T19:36:12.367Z,6.67
2018-07-15T19:38:41.464Z,4.27
2018-07-15T19:41:11.017Z,8.13
2018-07-15T19:43:40.356Z,6.17
2018-07-15T19:46:09.460Z,5.23
2018-07-15T19:48:38.662Z,5.13
2018-07-15T19:51:08.032Z,6.33
2018-07-15T19:53:37.150Z,10.27
2018-07-15T19:56:06.487Z,8.33
2018-07-15T19:58:35.631Z,9.13
2018-07-15T20:01:04.882Z,11.03
2018-07-15T20:03:33.945Z,12.33
2018-07-15T20:06:03.047Z,6.90
2018-07-15T20:08:32.235Z,10.37
2018-07-15T20:11:01.336Z,25.63
2018-07-15T20:13:31.540Z,17.90
2018-07-15T20:16:00.797Z,7.33
2018-07-15T20:18:29.876Z,8.87
2018-07-15T20:20:59.090Z,10.70
2018-07-15T20:23:28.522Z,8.87
2018-07-15T20:25:57.544Z,9.17
2018-07-15T20:28:26.638Z,15.73
2018-07-15T20:30:55.820Z,16.17
2018-07-15T20:33:25.003Z,14.87
2018-07-15T20:35:54.152Z,13.47
2018-07-15T20:38:23.335Z,16.47
2018-07-15T20:40:52.448Z,10.87
2018-07-15T20:43:21.538Z,11.43
2018-07-15T20:45:50.619Z,14.43
2018-07-15T20:48:19.943Z,10.80
2018-07-15T20:50:49.498Z,14.47
2018-07-15T20:53:18.574Z,17.37
2018-07-15T20:55:47.633Z,13.93
2018-07-15T20:58:16.685Z,14.17
2018-07-15T21:00:45.913Z,13.70
2018-07-15T21:03:15.059Z,13.70
2018-07-15T21:05:44.201Z,10.90
2018-07-15T21:08:13.272Z,15.33
2018-07-15T21:23:43.314Z,11.67
2018-07-15T21:26:12.630Z,11.83
2018-07-15T21:28:41.847Z,8.43
2018-07-15T21:31:11.027Z,7.97
2018-07-15T21:33:40.089Z,6.47
2018-07-15T21:36:09.172Z,10.73
2018-07-15T21:38:38.242Z,8.23
2018-07-15T21:41:07.502Z,8.13
2018-07-15T21:43:36.842Z,9.00
2018-07-15T21:46:06.028Z,9.23
2018-07-15T21:48:35.144Z,6.07
2018-07-15T21:51:04.836Z,6.90
2018-07-15T21:53:34.073Z,6.03
2018-07-15T21:56:03.541Z,9.53
2018-07-15T21:58:32.677Z,6.73
2018-07-15T22:01:01.750Z,8.23
2018-07-15T22:03:30.845Z,5.73
2018-07-15T22:05:59.949Z,7.37
2018-07-15T22:08:45.123Z,4.50
2018-07-15T22:11:14.436Z,8.33
2018-07-15T22:13:43.567Z,5.87
2018-07-15T22:16:12.718Z,4.77
2018-07-15T22:18:41.793Z,8.97
2018-07-15T22:21:11.097Z,4.33
2018-07-15T22:23:40.194Z,6.17
2018-07-15T22:26:09.310Z,6.53
2018-07-15T22:28:38.526Z,9.57
2018-07-15T22:31:07.613Z,5.50
2018-07-15T22:33:36.661Z,6.40
2018-07-15T22:36:05.839Z,6.93
2018-07-15T22:38:34.997Z,8.60
2018-07-15T22:41:04.013Z,6.73
2018-07-15T22:43:33.095Z,13.73
2018-07-15T22:46:02.169Z,11.13
2018-07-15T22:48:31.247Z,9.27
2018-07-15T22:51:00.365Z,6.70
2018-07-15T22:53:30.065Z,6.23
2018-07-15T22:55:59.149Z,7.97
2018-07-15T22:58:28.245Z,7.20
2018-07-15T23:00:57.337Z,6.53
2018-07-15T23:03:26.437Z,4.63
2018-07-15T23:06:07.126Z,9.50
2018-07-15T23:08:36.315Z,6.37
2018-07-15T23:11:05.383Z,9.57
2018-07-15T23:13:34.401Z,9.87
2018-07-15T23:16:03.633Z,7.47
2018-07-15T23:18:32.696Z,8.33
2018-07-15T23:21:02.042Z,6.90
2018-07-15T23:23:31.108Z,8.93
2018-07-15T23:26:00.177Z,8.57
2018-07-15T23:28:29.274Z,8.00
2018-07-15T23:30:59.131Z,8.37
2018-07-15T23:33:28.109Z,10.93
2018-07-15T23:35:57.176Z,7.20
2018-07-15T23:38:26.237Z,13.03
2018-07-15T23:40:56.046Z,5.77
2018-07-15T23:43:25.111Z,13.90
2018-07-15T23:45:54.197Z,11.97
2018-07-15T23:48:23.335Z,9.40
2018-07-15T23:50:52.395Z,8.13
2018-07-15T23:53:21.466Z,9.20
2018-07-15T23:55:50.486Z,13.20
2018-07-15T23:58:19.576Z,9.07
